sensor_id;sensor_type;location;lat;lon;timestamp;temperature;humidity
3850;DHT22;1940;51.052;13.678;2024-02-21T00:01:30;8.90;79.90
3850;DHT22;1940;51.052;13.678;2024-02-21T00:03:55;8.90;80.00
3850;DHT22;1940;51.052;13.678;2024-02-21T00:06:21;8.90;80.00
3850;DHT22;1940;51.052;13.678;2024-02-21T00:08:46;8.90;79.90
3850;DHT22;1940;51.052;13.678;2024-02-21T00:11:12;9.00;79.60
3850;DHT22;1940;51.052;13.678;2024-02-21T00:13:37;9.00;79.60
3850;DHT22;1940;51.052;13.678;2024-02-21T00:16:03;9.00;79.60
3850;DHT22;1940;51.052;13.678;2024-02-21T00:18:28;8.90;79.80
3850;DHT22;1940;51.052;13.678;2024-02-21T00:20:54;8.90;80.00
3850;DHT22;1940;51.052;13.678;2024-02-21T00:23:19;9.00;79.80
3850;DHT22;1940;51.052;13.678;2024-02-21T00:25:45;9.00;79.50
3850;DHT22;1940;51.052;13.678;2024-02-21T00:28:10;9.00;79.50
3850;DHT22;1940;51.052;13.678;2024-02-21T00:30:36;9.10;79.30
3850;DHT22;1940;51.052;13.678;2024-02-21T00:33:04;9.10;79.20
3850;DHT22;1940;51.052;13.678;2024-02-21T00:35:29;9.10;79.20
3850;DHT22;1940;51.052;13.678;2024-02-21T00:37:54;9.10;79.30
3850;DHT22;1940;51.052;13.678;2024-02-21T00:40:22;9.10;79.40
3850;DHT22;1940;51.052;13.678;2024-02-21T00:42:48;9.10;79.30
3850;DHT22;1940;51.052;13.678;2024-02-21T00:45:14;9.00;79.20
3850;DHT22;1940;51.052;13.678;2024-02-21T00:47:39;9.00;79.10
3850;DHT22;1940;51.052;13.678;2024-02-21T00:50:06;9.00;79.30
3850;DHT22;1940;51.052;13.678;2024-02-21T00:52:32;9.00;79.30
3850;DHT22;1940;51.052;13.678;2024-02-21T00:54:58;9.00;79.30
3850;DHT22;1940;51.052;13.678;2024-02-21T00:57:24;9.00;79.30
3850;DHT22;1940;51.052;13.678;2024-02-21T00:59:50;9.00;79.30
3850;DHT22;1940;51.052;13.678;2024-02-21T01:02:15;9.00;79.20
3850;DHT22;1940;51.052;13.678;2024-02-21T01:04:41;9.00;79.20
3850;DHT22;1940;51.052;13.678;2024-02-21T01:07:06;9.00;79.20
3850;DHT22;1940;51.052;13.678;2024-02-21T01:09:32;8.90;79.30
3850;DHT22;1940;51.052;13.678;2024-02-21T01:11:57;8.90;79.50
3850;DHT22;1940;51.052;13.678;2024-02-21T01:14:23;8.90;79.20
3850;DHT22;1940;51.052;13.678;2024-02-21T01:16:48;8.90;79.50
3850;DHT22;1940;51.052;13.678;2024-02-21T01:19:13;8.90;79.50
3850;DHT22;1940;51.052;13.678;2024-02-21T01:21:39;8.90;79.50
3850;DHT22;1940;51.052;13.678;2024-02-21T01:24:04;8.90;79.60
3850;DHT22;1940;51.052;13.678;2024-02-21T01:26:30;8.90;79.60
3850;DHT22;1940;51.052;13.678;2024-02-21T01:28:55;8.80;79.70
3850;DHT22;1940;51.052;13.678;2024-02-21T01:31:21;8.90;79.40
3850;DHT22;1940;51.052;13.678;2024-02-21T01:33:46;8.90;79.40
3850;DHT22;1940;51.052;13.678;2024-02-21T01:36:12;8.90;79.50
3850;DHT22;1940;51.052;13.678;2024-02-21T01:38:37;8.90;79.50
3850;DHT22;1940;51.052;13.678;2024-02-21T01:41:03;8.90;79.40
3850;DHT22;1940;51.052;13.678;2024-02-21T01:43:28;8.80;79.60
3850;DHT22;1940;51.052;13.678;2024-02-21T01:45:55;8.80;79.60
3850;DHT22;1940;51.052;13.678;2024-02-21T01:48:25;8.90;79.40
3850;DHT22;1940;51.052;13.678;2024-02-21T01:50:51;8.90;79.50
3850;DHT22;1940;51.052;13.678;2024-02-21T01:53:22;8.80;79.60
3850;DHT22;1940;51.052;13.678;2024-02-21T01:55:48;8.80;79.60
3850;DHT22;1940;51.052;13.678;2024-02-21T01:58:15;8.80;79.70
3850;DHT22;1940;51.052;13.678;2024-02-21T02:00:42;8.80;79.60
3850;DHT22;1940;51.052;13.678;2024-02-21T02:03:12;8.70;79.80
3850;DHT22;1940;51.052;13.678;2024-02-21T02:05:46;8.70;80.10
3850;DHT22;1940;51.052;13.678;2024-02-21T02:08:15;8.60;80.20
3850;DHT22;1940;51.052;13.678;2024-02-21T02:10:41;8.60;80.40
3850;DHT22;1940;51.052;13.678;2024-02-21T02:13:07;8.60;80.60
3850;DHT22;1940;51.052;13.678;2024-02-21T02:15:43;8.60;80.70
3850;DHT22;1940;51.052;13.678;2024-02-21T02:18:10;8.60;80.50
3850;DHT22;1940;51.052;13.678;2024-02-21T02:20:36;8.60;80.50
3850;DHT22;1940;51.052;13.678;2024-02-21T02:23:08;8.70;80.30
3850;DHT22;1940;51.052;13.678;2024-02-21T02:25:35;8.70;80.30
3850;DHT22;1940;51.052;13.678;2024-02-21T02:28:01;8.70;80.10
3850;DHT22;1940;51.052;13.678;2024-02-21T02:30:26;8.70;80.30
3850;DHT22;1940;51.052;13.678;2024-02-21T02:32:52;8.70;80.40
3850;DHT22;1940;51.052;13.678;2024-02-21T02:35:17;8.60;80.60
3850;DHT22;1940;51.052;13.678;2024-02-21T02:37:50;8.70;80.50
3850;DHT22;1940;51.052;13.678;2024-02-21T02:40:16;8.70;80.40
3850;DHT22;1940;51.052;13.678;2024-02-21T02:42:41;8.70;80.50
3850;DHT22;1940;51.052;13.678;2024-02-21T02:45:07;8.70;80.50
3850;DHT22;1940;51.052;13.678;2024-02-21T02:47:33;8.70;80.30
3850;DHT22;1940;51.052;13.678;2024-02-21T02:50:00;8.70;80.30
3850;DHT22;1940;51.052;13.678;2024-02-21T02:52:25;8.70;80.30
3850;DHT22;1940;51.052;13.678;2024-02-21T02:54:51;8.70;80.50
3850;DHT22;1940;51.052;13.678;2024-02-21T02:57:17;8.70;80.30
3850;DHT22;1940;51.052;13.678;2024-02-21T02:59:48;8.70;80.40
3850;DHT22;1940;51.052;13.678;2024-02-21T03:02:13;8.70;80.50
3850;DHT22;1940;51.052;13.678;2024-02-21T03:04:42;8.70;80.50
3850;DHT22;1940;51.052;13.678;2024-02-21T03:07:08;8.70;80.30
3850;DHT22;1940;51.052;13.678;2024-02-21T03:09:33;8.70;80.40
3850;DHT22;1940;51.052;13.678;2024-02-21T03:11:59;8.60;80.70
3850;DHT22;1940;51.052;13.678;2024-02-21T03:14:28;8.70;80.50
3850;DHT22;1940;51.052;13.678;2024-02-21T03:16:54;8.70;80.40
3850;DHT22;1940;51.052;13.678;2024-02-21T03:19:19;8.70;80.10
3850;DHT22;1940;51.052;13.678;2024-02-21T03:21:45;8.80;79.90
3850;DHT22;1940;51.052;13.678;2024-02-21T03:24:10;8.70;80.10
3850;DHT22;1940;51.052;13.678;2024-02-21T03:26:36;8.70;79.90
3850;DHT22;1940;51.052;13.678;2024-02-21T03:29:01;8.70;80.10
3850;DHT22;1940;51.052;13.678;2024-02-21T03:31:27;8.70;80.30
3850;DHT22;1940;51.052;13.678;2024-02-21T03:33:53;8.60;80.60
3850;DHT22;1940;51.052;13.678;2024-02-21T03:36:18;8.70;80.30
3850;DHT22;1940;51.052;13.678;2024-02-21T03:38:44;8.70;79.90
3850;DHT22;1940;51.052;13.678;2024-02-21T03:41:10;8.70;80.00
3850;DHT22;1940;51.052;13.678;2024-02-21T03:43:37;8.70;80.30
3850;DHT22;1940;51.052;13.678;2024-02-21T03:46:03;8.70;80.30
3850;DHT22;1940;51.052;13.678;2024-02-21T03:48:28;8.70;79.90
3850;DHT22;1940;51.052;13.678;2024-02-21T03:50:54;8.70;79.90
3850;DHT22;1940;51.052;13.678;2024-02-21T03:53:19;8.70;79.90
3850;DHT22;1940;51.052;13.678;2024-02-21T03:55:45;8.70;79.80
3850;DHT22;1940;51.052;13.678;2024-02-21T03:58:10;8.70;79.70
3850;DHT22;1940;51.052;13.678;2024-02-21T04:00:36;8.70;79.70
3850;DHT22;1940;51.052;13.678;2024-02-21T04:03:02;8.70;79.60
3850;DHT22;1940;51.052;13.678;2024-02-21T04:05:28;8.70;79.70
3850;DHT22;1940;51.052;13.678;2024-02-21T04:07:53;8.70;79.60
3850;DHT22;1940;51.052;13.678;2024-02-21T04:10:19;8.70;79.60
3850;DHT22;1940;51.052;13.678;2024-02-21T04:12:44;8.70;79.70
3850;DHT22;1940;51.052;13.678;2024-02-21T04:15:10;8.70;79.60
3850;DHT22;1940;51.052;13.678;2024-02-21T04:17:36;8.70;79.80
3850;DHT22;1940;51.052;13.678;2024-02-21T04:20:05;8.70;79.50
3850;DHT22;1940;51.052;13.678;2024-02-21T04:22:33;8.70;79.40
3850;DHT22;1940;51.052;13.678;2024-02-21T04:25:02;8.70;79.50
3850;DHT22;1940;51.052;13.678;2024-02-21T04:27:28;8.70;79.60
3850;DHT22;1940;51.052;13.678;2024-02-21T04:29:55;8.70;79.40
3850;DHT22;1940;51.052;13.678;2024-02-21T04:32:20;8.70;79.30
3850;DHT22;1940;51.052;13.678;2024-02-21T04:34:45;8.70;79.40
3850;DHT22;1940;51.052;13.678;2024-02-21T04:37:11;8.70;79.40
3850;DHT22;1940;51.052;13.678;2024-02-21T04:39:36;8.70;79.30
3850;DHT22;1940;51.052;13.678;2024-02-21T04:42:02;8.70;79.40
3850;DHT22;1940;51.052;13.678;2024-02-21T04:44:28;8.70;79.30
3850;DHT22;1940;51.052;13.678;2024-02-21T04:46:53;8.70;79.30
3850;DHT22;1940;51.052;13.678;2024-02-21T04:49:19;8.70;79.30
3850;DHT22;1940;51.052;13.678;2024-02-21T04:51:44;8.70;79.30
3850;DHT22;1940;51.052;13.678;2024-02-21T04:54:10;8.70;79.50
3850;DHT22;1940;51.052;13.678;2024-02-21T04:56:35;8.70;79.50
3850;DHT22;1940;51.052;13.678;2024-02-21T04:59:01;8.70;79.60
3850;DHT22;1940;51.052;13.678;2024-02-21T05:01:28;8.60;79.90
3850;DHT22;1940;51.052;13.678;2024-02-21T05:03:53;8.70;79.70
3850;DHT22;1940;51.052;13.678;2024-02-21T05:06:19;8.60;79.80
3850;DHT22;1940;51.052;13.678;2024-02-21T05:08:44;8.70;79.90
3850;DHT22;1940;51.052;13.678;2024-02-21T05:11:10;8.70;79.80
3850;DHT22;1940;51.052;13.678;2024-02-21T05:13:35;8.70;80.10
3850;DHT22;1940;51.052;13.678;2024-02-21T05:16:01;8.60;80.60
3850;DHT22;1940;51.052;13.678;2024-02-21T05:18:27;8.60;81.00
3850;DHT22;1940;51.052;13.678;2024-02-21T05:20:53;8.60;81.50
3850;DHT22;1940;51.052;13.678;2024-02-21T05:23:18;8.60;81.60
3850;DHT22;1940;51.052;13.678;2024-02-21T05:25:44;8.60;81.70
3850;DHT22;1940;51.052;13.678;2024-02-21T05:28:09;8.60;81.70
3850;DHT22;1940;51.052;13.678;2024-02-21T05:30:35;8.70;81.70
3850;DHT22;1940;51.052;13.678;2024-02-21T05:33:05;8.60;81.50
3850;DHT22;1940;51.052;13.678;2024-02-21T05:35:30;8.60;81.50
3850;DHT22;1940;51.052;13.678;2024-02-21T05:37:56;8.60;81.20
3850;DHT22;1940;51.052;13.678;2024-02-21T05:40:23;8.60;81.40
3850;DHT22;1940;51.052;13.678;2024-02-21T05:42:48;8.60;81.20
3850;DHT22;1940;51.052;13.678;2024-02-21T05:45:16;8.60;81.50
3850;DHT22;1940;51.052;13.678;2024-02-21T05:47:41;8.60;81.30
3850;DHT22;1940;51.052;13.678;2024-02-21T05:50:07;8.60;81.30
3850;DHT22;1940;51.052;13.678;2024-02-21T05:52:34;8.70;81.20
3850;DHT22;1940;51.052;13.678;2024-02-21T05:54:59;8.70;81.30
3850;DHT22;1940;51.052;13.678;2024-02-21T05:57:25;8.70;81.50
3850;DHT22;1940;51.052;13.678;2024-02-21T05:59:50;8.60;81.70
3850;DHT22;1940;51.052;13.678;2024-02-21T06:02:16;8.60;82.00
3850;DHT22;1940;51.052;13.678;2024-02-21T06:04:41;8.60;82.10
3850;DHT22;1940;51.052;13.678;2024-02-21T06:07:08;8.60;82.20
3850;DHT22;1940;51.052;13.678;2024-02-21T06:09:34;8.60;82.10
3850;DHT22;1940;51.052;13.678;2024-02-21T06:11:59;8.70;82.20
3850;DHT22;1940;51.052;13.678;2024-02-21T06:14:25;8.70;82.20
3850;DHT22;1940;51.052;13.678;2024-02-21T06:16:50;8.70;82.60
3850;DHT22;1940;51.052;13.678;2024-02-21T06:19:16;8.70;82.50
3850;DHT22;1940;51.052;13.678;2024-02-21T06:21:41;8.60;82.50
3850;DHT22;1940;51.052;13.678;2024-02-21T06:24:07;8.60;82.50
3850;DHT22;1940;51.052;13.678;2024-02-21T06:26:32;8.60;82.50
3850;DHT22;1940;51.052;13.678;2024-02-21T06:28:58;8.60;82.80
3850;DHT22;1940;51.052;13.678;2024-02-21T06:31:25;8.50;83.20
3850;DHT22;1940;51.052;13.678;2024-02-21T06:33:50;8.60;83.10
3850;DHT22;1940;51.052;13.678;2024-02-21T06:36:16;8.50;83.10
3850;DHT22;1940;51.052;13.678;2024-02-21T06:38:41;8.60;83.00
3850;DHT22;1940;51.052;13.678;2024-02-21T06:41:17;8.60;83.10
3850;DHT22;1940;51.052;13.678;2024-02-21T06:43:45;8.60;82.70
3850;DHT22;1940;51.052;13.678;2024-02-21T06:46:11;8.70;82.60
3850;DHT22;1940;51.052;13.678;2024-02-21T06:48:36;8.70;82.60
3850;DHT22;1940;51.052;13.678;2024-02-21T06:51:02;8.70;82.60
3850;DHT22;1940;51.052;13.678;2024-02-21T06:53:28;8.80;82.30
3850;DHT22;1940;51.052;13.678;2024-02-21T06:55:54;8.80;82.10
3850;DHT22;1940;51.052;13.678;2024-02-21T06:58:20;8.80;81.90
3850;DHT22;1940;51.052;13.678;2024-02-21T07:00:45;8.90;82.10
3850;DHT22;1940;51.052;13.678;2024-02-21T07:03:11;8.90;82.10
3850;DHT22;1940;51.052;13.678;2024-02-21T07:05:36;9.00;81.90
3850;DHT22;1940;51.052;13.678;2024-02-21T07:08:02;9.00;81.70
3850;DHT22;1940;51.052;13.678;2024-02-21T07:10:28;9.10;81.10
3850;DHT22;1940;51.052;13.678;2024-02-21T07:12:54;9.10;81.20
3850;DHT22;1940;51.052;13.678;2024-02-21T07:15:20;9.10;81.20
3850;DHT22;1940;51.052;13.678;2024-02-21T07:17:46;9.20;81.00
3850;DHT22;1940;51.052;13.678;2024-02-21T07:20:11;9.20;81.00
3850;DHT22;1940;51.052;13.678;2024-02-21T07:22:37;9.30;81.00
3850;DHT22;1940;51.052;13.678;2024-02-21T07:25:03;9.30;80.90
3850;DHT22;1940;51.052;13.678;2024-02-21T07:27:29;9.40;80.50
3850;DHT22;1940;51.052;13.678;2024-02-21T07:29:57;9.40;80.40
3850;DHT22;1940;51.052;13.678;2024-02-21T07:32:22;9.40;80.60
3850;DHT22;1940;51.052;13.678;2024-02-21T07:34:48;9.50;80.90
3850;DHT22;1940;51.052;13.678;2024-02-21T07:37:13;9.60;80.50
3850;DHT22;1940;51.052;13.678;2024-02-21T07:39:39;9.90;80.10
3850;DHT22;1940;51.052;13.678;2024-02-21T07:42:04;10.00;78.90
3850;DHT22;1940;51.052;13.678;2024-02-21T07:44:30;10.10;78.40
3850;DHT22;1940;51.052;13.678;2024-02-21T07:46:57;10.20;78.40
3850;DHT22;1940;51.052;13.678;2024-02-21T07:49:22;10.20;77.80
3850;DHT22;1940;51.052;13.678;2024-02-21T07:51:48;10.20;77.40
3850;DHT22;1940;51.052;13.678;2024-02-21T07:54:13;10.30;77.30
3850;DHT22;1940;51.052;13.678;2024-02-21T07:56:39;10.30;77.40
3850;DHT22;1940;51.052;13.678;2024-02-21T07:59:05;10.30;77.20
3850;DHT22;1940;51.052;13.678;2024-02-21T08:01:30;10.30;76.90
3850;DHT22;1940;51.052;13.678;2024-02-21T08:03:56;10.40;76.80
3850;DHT22;1940;51.052;13.678;2024-02-21T08:06:21;10.50;76.90
3850;DHT22;1940;51.052;13.678;2024-02-21T08:08:46;10.60;76.80
3850;DHT22;1940;51.052;13.678;2024-02-21T08:11:12;10.80;76.30
3850;DHT22;1940;51.052;13.678;2024-02-21T08:13:37;11.00;76.10
3850;DHT22;1940;51.052;13.678;2024-02-21T08:16:03;11.40;75.20
3850;DHT22;1940;51.052;13.678;2024-02-21T08:18:29;11.50;74.20
3850;DHT22;1940;51.052;13.678;2024-02-21T08:20:54;11.40;75.00
3850;DHT22;1940;51.052;13.678;2024-02-21T08:23:23;11.40;74.30
3850;DHT22;1940;51.052;13.678;2024-02-21T08:25:49;11.40;74.20
3850;DHT22;1940;51.052;13.678;2024-02-21T08:28:15;11.20;74.70
3850;DHT22;1940;51.052;13.678;2024-02-21T08:30:40;11.10;75.30
3850;DHT22;1940;51.052;13.678;2024-02-21T08:33:09;10.80;75.50
3850;DHT22;1940;51.052;13.678;2024-02-21T08:35:35;10.80;76.00
3850;DHT22;1940;51.052;13.678;2024-02-21T08:38:00;10.80;75.60
3850;DHT22;1940;51.052;13.678;2024-02-21T08:40:26;10.80;75.90
3850;DHT22;1940;51.052;13.678;2024-02-21T08:42:51;10.60;76.40
3850;DHT22;1940;51.052;13.678;2024-02-21T08:45:17;10.50;76.60
3850;DHT22;1940;51.052;13.678;2024-02-21T08:47:42;10.60;76.70
3850;DHT22;1940;51.052;13.678;2024-02-21T08:50:08;10.50;76.70
3850;DHT22;1940;51.052;13.678;2024-02-21T08:52:37;10.30;77.30
3850;DHT22;1940;51.052;13.678;2024-02-21T08:55:03;10.30;77.40
3850;DHT22;1940;51.052;13.678;2024-02-21T08:57:29;10.10;77.90
3850;DHT22;1940;51.052;13.678;2024-02-21T08:59:54;10.00;78.20
3850;DHT22;1940;51.052;13.678;2024-02-21T09:02:20;10.00;78.50
3850;DHT22;1940;51.052;13.678;2024-02-21T09:04:45;10.20;78.50
3850;DHT22;1940;51.052;13.678;2024-02-21T09:07:11;10.20;77.90
3850;DHT22;1940;51.052;13.678;2024-02-21T09:09:37;10.30;77.80
3850;DHT22;1940;51.052;13.678;2024-02-21T09:12:06;10.30;77.40
3850;DHT22;1940;51.052;13.678;2024-02-21T09:14:32;10.30;77.60
3850;DHT22;1940;51.052;13.678;2024-02-21T09:16:58;10.00;78.10
3850;DHT22;1940;51.052;13.678;2024-02-21T09:19:23;9.90;78.60
3850;DHT22;1940;51.052;13.678;2024-02-21T09:21:49;10.00;78.70
3850;DHT22;1940;51.052;13.678;2024-02-21T09:24:14;10.00;78.60
3850;DHT22;1940;51.052;13.678;2024-02-21T09:26:40;10.10;78.20
3850;DHT22;1940;51.052;13.678;2024-02-21T09:29:05;10.00;78.70
3850;DHT22;1940;51.052;13.678;2024-02-21T09:31:31;10.00;78.50
3850;DHT22;1940;51.052;13.678;2024-02-21T09:33:56;10.00;78.20
3850;DHT22;1940;51.052;13.678;2024-02-21T09:36:22;10.00;78.50
3850;DHT22;1940;51.052;13.678;2024-02-21T09:38:48;9.80;79.20
3850;DHT22;1940;51.052;13.678;2024-02-21T09:41:18;9.80;79.80
3850;DHT22;1940;51.052;13.678;2024-02-21T09:43:44;9.80;79.50
3850;DHT22;1940;51.052;13.678;2024-02-21T09:46:17;9.70;79.70
3850;DHT22;1940;51.052;13.678;2024-02-21T09:49:35;9.70;79.70
3850;DHT22;1940;51.052;13.678;2024-02-21T09:51:54;9.70;80.00
3850;DHT22;1940;51.052;13.678;2024-02-21T09:54:21;9.70;79.30
3850;DHT22;1940;51.052;13.678;2024-02-21T09:56:47;9.60;79.90
3850;DHT22;1940;51.052;13.678;2024-02-21T09:59:15;9.70;79.90
3850;DHT22;1940;51.052;13.678;2024-02-21T10:01:42;9.80;79.60
3850;DHT22;1940;51.052;13.678;2024-02-21T10:04:09;9.70;79.80
3850;DHT22;1940;51.052;13.678;2024-02-21T10:06:35;9.70;79.90
3850;DHT22;1940;51.052;13.678;2024-02-21T10:09:03;9.80;79.90
3850;DHT22;1940;51.052;13.678;2024-02-21T10:11:28;9.90;79.70
3850;DHT22;1940;51.052;13.678;2024-02-21T10:14:07;10.00;79.30
3850;DHT22;1940;51.052;13.678;2024-02-21T10:16:33;10.10;79.10
3850;DHT22;1940;51.052;13.678;2024-02-21T10:18:59;10.10;78.70
3850;DHT22;1940;51.052;13.678;2024-02-21T10:21:25;10.10;78.70
3850;DHT22;1940;51.052;13.678;2024-02-21T10:23:51;10.20;78.80
3850;DHT22;1940;51.052;13.678;2024-02-21T10:26:18;10.20;78.50
3850;DHT22;1940;51.052;13.678;2024-02-21T10:28:44;10.10;78.60
3850;DHT22;1940;51.052;13.678;2024-02-21T10:31:11;10.00;78.60
3850;DHT22;1940;51.052;13.678;2024-02-21T10:33:59;10.10;78.40
3850;DHT22;1940;51.052;13.678;2024-02-21T10:36:28;10.20;78.10
3850;DHT22;1940;51.052;13.678;2024-02-21T10:38:54;10.20;77.50
3850;DHT22;1940;51.052;13.678;2024-02-21T10:41:21;10.20;77.70
3850;DHT22;1940;51.052;13.678;2024-02-21T10:43:53;10.20;77.30
3850;DHT22;1940;51.052;13.678;2024-02-21T10:46:21;10.20;77.60
3850;DHT22;1940;51.052;13.678;2024-02-21T10:48:47;10.20;77.60
3850;DHT22;1940;51.052;13.678;2024-02-21T10:51:20;10.20;77.00
3850;DHT22;1940;51.052;13.678;2024-02-21T10:54:09;10.10;76.90
3850;DHT22;1940;51.052;13.678;2024-02-21T10:56:38;10.20;77.00
3850;DHT22;1940;51.052;13.678;2024-02-21T10:59:06;10.20;77.10
3850;DHT22;1940;51.052;13.678;2024-02-21T11:01:32;10.30;77.00
3850;DHT22;1940;51.052;13.678;2024-02-21T11:04:11;10.20;77.30
3850;DHT22;1940;51.052;13.678;2024-02-21T11:06:38;10.20;77.20
3850;DHT22;1940;51.052;13.678;2024-02-21T11:09:07;10.20;77.60
3850;DHT22;1940;51.052;13.678;2024-02-21T11:11:41;10.20;77.50
3850;DHT22;1940;51.052;13.678;2024-02-21T11:16:41;10.30;77.60
3850;DHT22;1940;51.052;13.678;2024-02-21T11:19:09;10.40;77.50
3850;DHT22;1940;51.052;13.678;2024-02-21T11:21:37;10.40;77.50
3850;DHT22;1940;51.052;13.678;2024-02-21T11:24:03;10.50;77.10
3850;DHT22;1940;51.052;13.678;2024-02-21T11:26:30;10.50;77.30
3850;DHT22;1940;51.052;13.678;2024-02-21T11:28:57;10.60;76.70
3850;DHT22;1940;51.052;13.678;2024-02-21T11:31:23;10.60;76.90
3850;DHT22;1940;51.052;13.678;2024-02-21T11:33:48;10.70;76.60
3850;DHT22;1940;51.052;13.678;2024-02-21T11:36:26;10.80;76.70
3850;DHT22;1940;51.052;13.678;2024-02-21T11:38:52;10.90;76.60
3850;DHT22;1940;51.052;13.678;2024-02-21T11:41:21;11.00;75.70
3850;DHT22;1940;51.052;13.678;2024-02-21T11:43:48;11.00;75.80
3850;DHT22;1940;51.052;13.678;2024-02-21T11:46:14;10.80;76.40
3850;DHT22;1940;51.052;13.678;2024-02-21T11:48:41;10.80;76.70
3850;DHT22;1940;51.052;13.678;2024-02-21T11:51:09;10.90;76.30
3850;DHT22;1940;51.052;13.678;2024-02-21T11:53:35;10.90;76.20
3850;DHT22;1940;51.052;13.678;2024-02-21T11:56:00;10.90;76.40
3850;DHT22;1940;51.052;13.678;2024-02-21T11:58:26;11.00;76.10
3850;DHT22;1940;51.052;13.678;2024-02-21T12:00:52;11.10;76.00
3850;DHT22;1940;51.052;13.678;2024-02-21T12:03:18;11.00;76.20
3850;DHT22;1940;51.052;13.678;2024-02-21T12:05:43;11.00;76.10
3850;DHT22;1940;51.052;13.678;2024-02-21T12:08:09;11.10;75.70
3850;DHT22;1940;51.052;13.678;2024-02-21T12:10:35;11.30;75.50
3850;DHT22;1940;51.052;13.678;2024-02-21T12:13:10;11.40;75.40
3850;DHT22;1940;51.052;13.678;2024-02-21T12:15:36;11.90;74.20
3850;DHT22;1940;51.052;13.678;2024-02-21T12:18:01;12.30;73.40
3850;DHT22;1940;51.052;13.678;2024-02-21T12:20:27;12.10;73.10
3850;DHT22;1940;51.052;13.678;2024-02-21T12:22:53;12.20;72.80
3850;DHT22;1940;51.052;13.678;2024-02-21T12:25:22;12.00;73.30
3850;DHT22;1940;51.052;13.678;2024-02-21T12:27:48;11.90;73.90
3850;DHT22;1940;51.052;13.678;2024-02-21T12:30:18;11.90;73.80
3850;DHT22;1940;51.052;13.678;2024-02-21T12:32:43;12.00;74.10
3850;DHT22;1940;51.052;13.678;2024-02-21T12:35:09;12.10;73.70
3850;DHT22;1940;51.052;13.678;2024-02-21T12:37:35;12.40;73.40
3850;DHT22;1940;51.052;13.678;2024-02-21T12:40:00;12.70;72.60
3850;DHT22;1940;51.052;13.678;2024-02-21T12:42:26;12.80;72.00
3850;DHT22;1940;51.052;13.678;2024-02-21T12:44:52;13.10;71.30
3850;DHT22;1940;51.052;13.678;2024-02-21T12:47:18;13.20;70.70
3850;DHT22;1940;51.052;13.678;2024-02-21T12:49:45;13.30;70.30
3850;DHT22;1940;51.052;13.678;2024-02-21T12:52:11;13.20;70.10
3850;DHT22;1940;51.052;13.678;2024-02-21T12:54:36;13.00;71.00
3850;DHT22;1940;51.052;13.678;2024-02-21T12:57:02;12.80;71.10
3850;DHT22;1940;51.052;13.678;2024-02-21T12:59:29;12.60;71.50
3850;DHT22;1940;51.052;13.678;2024-02-21T13:01:54;12.60;71.40
3850;DHT22;1940;51.052;13.678;2024-02-21T13:04:20;12.50;71.60
3850;DHT22;1940;51.052;13.678;2024-02-21T13:06:48;12.40;72.30
3850;DHT22;1940;51.052;13.678;2024-02-21T13:09:14;12.40;72.40
3850;DHT22;1940;51.052;13.678;2024-02-21T13:11:40;12.50;72.00
3850;DHT22;1940;51.052;13.678;2024-02-21T13:14:06;12.50;72.00
3850;DHT22;1940;51.052;13.678;2024-02-21T13:16:32;12.50;72.10
3850;DHT22;1940;51.052;13.678;2024-02-21T13:19:04;12.50;72.20
3850;DHT22;1940;51.052;13.678;2024-02-21T13:21:30;12.60;71.90
3850;DHT22;1940;51.052;13.678;2024-02-21T13:23:56;12.70;71.80
3850;DHT22;1940;51.052;13.678;2024-02-21T13:26:22;12.60;71.70
3850;DHT22;1940;51.052;13.678;2024-02-21T13:28:47;12.70;71.70
3850;DHT22;1940;51.052;13.678;2024-02-21T13:31:13;12.60;71.70
3850;DHT22;1940;51.052;13.678;2024-02-21T13:33:39;12.60;71.50
3850;DHT22;1940;51.052;13.678;2024-02-21T13:36:05;12.60;71.40
3850;DHT22;1940;51.052;13.678;2024-02-21T13:38:30;12.80;70.70
3850;DHT22;1940;51.052;13.678;2024-02-21T13:40:56;12.90;69.50
3850;DHT22;1940;51.052;13.678;2024-02-21T13:43:21;12.90;69.30
3850;DHT22;1940;51.052;13.678;2024-02-21T13:45:56;12.90;69.50
3850;DHT22;1940;51.052;13.678;2024-02-21T13:48:23;12.90;69.80
3850;DHT22;1940;51.052;13.678;2024-02-21T13:50:49;12.90;70.00
3850;DHT22;1940;51.052;13.678;2024-02-21T13:53:15;13.00;69.80
3850;DHT22;1940;51.052;13.678;2024-02-21T13:55:46;13.00;69.60
3850;DHT22;1940;51.052;13.678;2024-02-21T13:58:12;13.10;69.60
3850;DHT22;1940;51.052;13.678;2024-02-21T14:00:37;13.10;69.40
3850;DHT22;1940;51.052;13.678;2024-02-21T14:03:03;13.10;69.50
3850;DHT22;1940;51.052;13.678;2024-02-21T14:05:28;13.10;69.20
3850;DHT22;1940;51.052;13.678;2024-02-21T14:07:54;13.00;69.50
3850;DHT22;1940;51.052;13.678;2024-02-21T14:10:20;13.00;69.20
3850;DHT22;1940;51.052;13.678;2024-02-21T14:12:46;13.00;69.10
3850;DHT22;1940;51.052;13.678;2024-02-21T14:15:13;13.10;68.90
3850;DHT22;1940;51.052;13.678;2024-02-21T14:17:38;13.10;69.00
3850;DHT22;1940;51.052;13.678;2024-02-21T14:20:05;13.20;68.90
3850;DHT22;1940;51.052;13.678;2024-02-21T14:22:31;13.20;68.90
3850;DHT22;1940;51.052;13.678;2024-02-21T14:24:56;13.30;68.70
3850;DHT22;1940;51.052;13.678;2024-02-21T14:27:22;13.20;69.50
3850;DHT22;1940;51.052;13.678;2024-02-21T14:29:48;13.30;69.80
3850;DHT22;1940;51.052;13.678;2024-02-21T14:32:13;13.30;69.30
3850;DHT22;1940;51.052;13.678;2024-02-21T14:34:39;13.10;68.90
3850;DHT22;1940;51.052;13.678;2024-02-21T14:37:04;13.10;69.40
3850;DHT22;1940;51.052;13.678;2024-02-21T14:39:30;13.10;70.00
3850;DHT22;1940;51.052;13.678;2024-02-21T14:41:55;13.20;68.60
3850;DHT22;1940;51.052;13.678;2024-02-21T14:44:21;13.20;67.20
3850;DHT22;1940;51.052;13.678;2024-02-21T14:46:46;13.20;65.20
3850;DHT22;1940;51.052;13.678;2024-02-21T14:49:12;13.30;63.50
3850;DHT22;1940;51.052;13.678;2024-02-21T14:51:38;13.40;63.70
3850;DHT22;1940;51.052;13.678;2024-02-21T14:54:03;13.50;62.50
3850;DHT22;1940;51.052;13.678;2024-02-21T14:56:29;13.60;62.00
3850;DHT22;1940;51.052;13.678;2024-02-21T14:58:54;13.60;62.00
3850;DHT22;1940;51.052;13.678;2024-02-21T15:01:20;13.60;62.00
3850;DHT22;1940;51.052;13.678;2024-02-21T15:03:45;13.60;62.50
3850;DHT22;1940;51.052;13.678;2024-02-21T15:06:11;13.60;62.30
3850;DHT22;1940;51.052;13.678;2024-02-21T15:08:37;13.60;62.70
3850;DHT22;1940;51.052;13.678;2024-02-21T15:11:02;13.50;62.70
3850;DHT22;1940;51.052;13.678;2024-02-21T15:13:28;13.50;62.40
3850;DHT22;1940;51.052;13.678;2024-02-21T15:15:55;13.40;62.90
3850;DHT22;1940;51.052;13.678;2024-02-21T15:18:21;13.40;63.00
3850;DHT22;1940;51.052;13.678;2024-02-21T15:20:46;13.40;62.70
3850;DHT22;1940;51.052;13.678;2024-02-21T15:23:12;13.30;63.00
3850;DHT22;1940;51.052;13.678;2024-02-21T15:25:37;13.30;63.10
3850;DHT22;1940;51.052;13.678;2024-02-21T15:28:03;13.20;63.40
3850;DHT22;1940;51.052;13.678;2024-02-21T15:30:30;13.20;63.60
3850;DHT22;1940;51.052;13.678;2024-02-21T15:32:58;13.10;63.70
3850;DHT22;1940;51.052;13.678;2024-02-21T15:35:30;13.10;63.70
3850;DHT22;1940;51.052;13.678;2024-02-21T15:37:57;13.00;63.40
3850;DHT22;1940;51.052;13.678;2024-02-21T15:40:23;13.00;63.70
3850;DHT22;1940;51.052;13.678;2024-02-21T15:42:49;12.90;63.50
3850;DHT22;1940;51.052;13.678;2024-02-21T15:45:14;12.80;63.20
3850;DHT22;1940;51.052;13.678;2024-02-21T15:47:40;12.80;62.80
3850;DHT22;1940;51.052;13.678;2024-02-21T15:50:06;12.70;62.90
3850;DHT22;1940;51.052;13.678;2024-02-21T15:52:31;12.70;62.80